Portada
METAR-TAF:

METAR-TAF

Aeropuertos :

Aeropuerto Internacional Faa'a

Tahití, Polinesia Francesa

latitud: 17-33S, longitud: 149-37W, altitud: 2 m

Observación

El informe se hizo hace 17 minutos, a las 19:30 UTC
Viento 2 kt con dirección variable
Temperatura 28°C
Humedad 66%
Presión 1015 hPa
Visibilidad 10 km o más
Escasas nubes a una altura de 2000 ft
chaparrones en las proximidades

METAR: NTAA 211930Z VRB02KT 9999 VCSH FEW020 28/21 Q1015 NOSIG

Hora: 09:47 (19:47 UTC)

Pronóstico

El informe se hizo hace 2 horas y 47 minutos, a las 17:00 UTC
Pronóstico válido del 21 a las 18 UTC al 22 a las 24 UTC
Viento 5 kt con dirección variable
Visibilidad 10 km o más
Escasas nubes a una altura de 2000 ft
Nubes dispersas a una altura de 6000 ft

TAF: NTAA 211700Z 2118/2224 VRB05KT 9999 FEW020 SCT060

Observaciones y pronósticos meteorológicos de más de 4000 aeropuertos (mensajes METAR y TAF).

Los puntos amarillos y rojos representan las estaciones disponibles.

Ponga el ratón en el punto deseado para ver el nombre de la estación.

Haga clic para ver las observaciones y los pronósticos meteorológicos.

Para cambiar el mapa : haga clic en los botones verdes con una cruz de color negro para hacer un zoom, en el botón verde con un guión para alejar o en las flechas verdes para mapas adyacentes.


METAR-TAF: